Time;durP1;ratioP1;P1;durP2;ratioP2;P2;SDS_P1;SDS_P2;PMS_P1;PMS_P2;Temp;Humidity;BMP_temperature;BMP_pressure;BME280_temperature;BME280_humidity;BME280_pressure;Samples;Min_cycle;Max_cycle;Signal;HPM_P1;HPM_P2
2023/10/25 00:00:00;;;;;;;4.38;1.77;;;11.90;99.90;;;;;;2097182;28;20032;-72
2023/10/25 00:01:01;;;;;;;7.28;2.72;;;11.90;99.90;;;;;;2098546;28;20024;-72
2023/10/25 00:02:01;;;;;;;6.22;1.90;;;11.80;99.90;;;;;;2099039;28;20504;-72
2023/10/25 00:03:02;;;;;;;4.25;1.98;;;11.90;99.90;;;;;;2097154;28;20673;-72
2023/10/25 00:04:03;;;;;;;3.47;1.98;;;11.80;99.90;;;;;;2097531;28;20024;-72
2023/10/25 00:05:04;;;;;;;8.15;2.15;;;11.80;99.90;;;;;;2097325;28;20020;-73
2023/10/25 00:06:04;;;;;;;6.15;1.95;;;11.80;99.90;;;;;;2098866;28;20176;-72
2023/10/25 00:07:05;;;;;;;4.22;1.85;;;11.80;99.90;;;;;;2099352;28;20027;-73
2023/10/25 00:08:05;;;;;;;4.85;2.10;;;11.80;99.90;;;;;;2096667;28;20044;-72
2023/10/25 00:09:06;;;;;;;5.13;2.33;;;11.80;99.90;;;;;;2096650;28;20099;-72
2023/10/25 00:10:07;;;;;;;4.70;1.85;;;11.80;99.90;;;;;;2095407;28;20029;-73
2023/10/25 00:11:08;;;;;;;5.70;2.13;;;11.80;99.90;;;;;;2098061;28;20048;-72
2023/10/25 00:12:09;;;;;;;3.22;2.33;;;11.80;99.90;;;;;;2096172;28;20050;-73
2023/10/25 00:13:09;;;;;;;4.63;1.67;;;11.80;99.90;;;;;;2097572;28;20467;-72
2023/10/25 00:14:10;;;;;;;5.57;1.85;;;11.80;99.90;;;;;;2097246;28;20146;-73
2023/10/25 00:15:10;;;;;;;4.40;2.05;;;11.80;99.90;;;;;;2103046;28;20024;-72
2023/10/25 00:16:13;;;;;;;2.78;1.70;;;11.80;99.90;;;;;;2100806;28;20081;-72
2023/10/25 00:17:13;;;;;;;4.22;2.10;;;11.80;99.90;;;;;;2098661;28;20384;-73
2023/10/25 00:18:14;;;;;;;3.40;1.63;;;11.80;99.90;;;;;;2097587;28;20028;-72
2023/10/25 00:19:14;;;;;;;6.60;1.65;;;11.80;99.90;;;;;;2097530;28;20040;-72
2023/10/25 00:20:15;;;;;;;3.75;1.65;;;11.80;99.90;;;;;;2097774;28;20056;-72
2023/10/25 00:21:15;;;;;;;6.63;2.10;;;11.80;99.90;;;;;;2098733;28;20107;-72
2023/10/25 00:22:16;;;;;;;4.47;1.55;;;11.80;99.90;;;;;;2101010;28;20028;-72
2023/10/25 00:23:18;;;;;;;4.07;1.95;;;11.80;99.90;;;;;;2100466;28;20567;-73
2023/10/25 00:24:18;;;;;;;11.32;2.53;;;11.80;99.90;;;;;;2096857;28;20050;-73
2023/10/25 00:25:19;;;;;;;4.60;2.05;;;11.80;99.90;;;;;;2099581;28;20059;-72
2023/10/25 00:26:20;;;;;;;4.55;2.03;;;11.80;99.90;;;;;;2095466;28;20107;-72
2023/10/25 00:27:20;;;;;;;4.72;1.90;;;11.80;99.90;;;;;;2098110;28;20032;-72
2023/10/25 00:28:21;;;;;;;5.85;2.05;;;11.80;99.90;;;;;;2097950;28;20041;-72
2023/10/25 00:29:22;;;;;;;2.95;1.67;;;11.80;99.90;;;;;;2097193;28;20407;-73
2023/10/25 00:30:22;;;;;;;3.63;1.95;;;11.80;99.90;;;;;;2099157;28;20047;-73
2023/10/25 00:31:23;;;;;;;4.07;1.70;;;11.80;99.90;;;;;;2098222;28;20078;-73
2023/10/25 00:32:23;;;;;;;5.45;2.30;;;11.80;99.90;;;;;;2096737;28;20180;-73
2023/10/25 00:33:24;;;;;;;4.60;1.73;;;11.80;99.90;;;;;;2098969;28;20550;-73
2023/10/25 00:34:24;;;;;;;5.63;1.77;;;11.80;99.90;;;;;;2098123;28;20047;-72
2023/10/25 00:35:25;;;;;;;3.97;1.73;;;11.80;99.90;;;;;;2098266;28;20027;-73
2023/10/25 00:36:26;;;;;;;3.97;1.90;;;11.70;99.90;;;;;;2101263;28;20040;-72
2023/10/25 00:37:26;;;;;;;5.28;1.98;;;11.70;99.90;;;;;;2098903;28;20027;-73
2023/10/25 00:38:27;;;;;;;6.72;2.33;;;11.80;99.90;;;;;;2098115;28;20031;-72
2023/10/25 00:39:28;;;;;;;4.03;1.75;;;11.70;99.90;;;;;;2097452;28;20496;-72
2023/10/25 00:40:29;;;;;;;3.05;2.05;;;11.70;99.90;;;;;;2097511;28;20040;-73
2023/10/25 00:41:29;;;;;;;4.13;1.90;;;11.70;99.90;;;;;;2096709;28;20036;-73
2023/10/25 00:42:30;;;;;;;4.22;2.08;;;11.70;99.90;;;;;;2097407;28;20095;-72
2023/10/25 00:43:30;;;;;;;5.70;1.83;;;11.70;99.90;;;;;;2097512;28;20459;-73
2023/10/25 00:44:32;;;;;;;4.35;2.13;;;11.70;99.90;;;;;;2098915;28;20028;-73
2023/10/25 00:45:33;;;;;;;2.83;1.33;;;11.70;99.90;;;;;;2097108;28;20074;-72
2023/10/25 00:46:35;;;;;;;5.15;2.22;;;11.70;99.90;;;;;;2099482;28;20024;-71
2023/10/25 00:47:37;;;;;;;1.45;1.30;;;11.70;99.90;;;;;;2096800;28;20040;-72
2023/10/25 00:48:40;;;;;;;3.38;1.83;;;11.70;99.90;;;;;;2099023;28;20115;-72
2023/10/25 00:49:41;;;;;;;2.53;1.73;;;11.70;99.90;;;;;;2096576;28;20041;-72
2023/10/25 00:50:42;;;;;;;3.45;1.83;;;11.70;99.90;;;;;;2097879;28;20028;-72
2023/10/25 00:51:43;;;;;;;6.30;2.03;;;11.70;99.90;;;;;;2096982;28;20497;-72
2023/10/25 00:52:44;;;;;;;4.47;1.92;;;11.70;99.90;;;;;;2097176;28;20458;-72
2023/10/25 00:53:49;;;;;;;9.45;2.88;;;11.70;99.90;;;;;;2096105;28;20020;-71
2023/10/25 00:54:49;;;;;;;3.35;1.55;;;11.60;99.90;;;;;;2099368;28;20331;-72
2023/10/25 00:55:52;;;;;;;3.55;1.67;;;11.60;99.90;;;;;;2098976;28;20028;-72
2023/10/25 00:56:55;;;;;;;4.93;2.08;;;11.60;99.90;;;;;;2097390;28;20429;-72
2023/10/25 00:57:56;;;;;;;3.47;2.42;;;11.60;99.90;;;;;;2098547;28;20028;-72
2023/10/25 00:58:58;;;;;;;5.35;2.10;;;11.60;99.90;;;;;;2097748;28;20481;-72
2023/10/25 01:00:00;;;;;;;5.55;2.10;;;11.60;99.90;;;;;;2100958;28;20028;-72
2023/10/25 01:01:01;;;;;;;3.17;1.75;;;11.60;99.90;;;;;;2099123;28;20024;-72
2023/10/25 01:02:02;;;;;;;2.33;1.83;;;11.60;99.90;;;;;;2097751;28;20024;-72
2023/10/25 01:03:07;;;;;;;3.60;1.83;;;11.60;99.90;;;;;;2096866;28;20171;-71
2023/10/25 01:04:08;;;;;;;2.75;1.48;;;11.60;99.90;;;;;;2097082;28;20029;-72
2023/10/25 01:05:08;;;;;;;4.72;1.88;;;11.60;99.90;;;;;;2095392;28;20135;-72
2023/10/25 01:06:10;;;;;;;3.95;2.00;;;11.60;99.90;;;;;;2097643;28;22158;-72
2023/10/25 01:07:10;;;;;;;3.55;2.22;;;11.60;99.90;;;;;;2096972;28;20020;-72
2023/10/25 01:08:11;;;;;;;3.63;2.10;;;11.60;99.90;;;;;;2097582;28;20036;-72
2023/10/25 01:09:11;;;;;;;3.03;1.73;;;11.60;99.90;;;;;;2099296;28;20032;-72
2023/10/25 01:10:12;;;;;;;3.25;1.60;;;11.60;99.90;;;;;;2097349;28;20125;-72
2023/10/25 01:11:13;;;;;;;6.18;1.88;;;11.50;99.90;;;;;;2098603;28;20036;-72
2023/10/25 01:12:13;;;;;;;4.80;1.80;;;11.60;99.90;;;;;;2096452;28;20712;-72
2023/10/25 01:13:14;;;;;;;5.13;2.00;;;11.60;99.90;;;;;;2097849;28;20458;-72
2023/10/25 01:14:14;;;;;;;4.65;2.25;;;11.50;99.90;;;;;;2098573;28;20375;-72
2023/10/25 01:15:15;;;;;;;5.40;1.98;;;11.50;99.90;;;;;;2098258;28;20025;-71
2023/10/25 01:16:15;;;;;;;6.75;1.90;;;11.50;99.90;;;;;;2097232;28;20565;-72
2023/10/25 01:17:16;;;;;;;4.68;1.70;;;11.50;99.90;;;;;;2097562;28;20062;-72
2023/10/25 01:18:17;;;;;;;4.80;2.10;;;11.50;99.90;;;;;;2098922;28;20030;-72
2023/10/25 01:19:17;;;;;;;4.63;2.05;;;11.50;99.90;;;;;;2096089;28;20036;-72
2023/10/25 01:20:19;;;;;;;4.82;1.80;;;11.50;99.90;;;;;;2098174;28;20627;-72
2023/10/25 01:21:19;;;;;;;4.40;1.63;;;11.50;99.90;;;;;;2097536;28;20723;-72
2023/10/25 01:22:24;;;;;;;5.20;1.80;;;11.50;99.90;;;;;;2098759;28;21468;-72
2023/10/25 01:23:25;;;;;;;5.10;2.00;;;11.50;99.90;;;;;;2098568;28;20028;-72
2023/10/25 01:24:25;;;;;;;3.53;2.28;;;11.50;99.90;;;;;;2098106;28;20085;-72
2023/10/25 01:25:26;;;;;;;5.60;2.15;;;11.50;99.90;;;;;;2098138;28;20086;-72
2023/10/25 01:26:26;;;;;;;4.55;2.00;;;11.50;99.90;;;;;;2096884;28;20017;-71
2023/10/25 01:27:27;;;;;;;7.75;2.25;;;11.50;99.90;;;;;;2098235;28;20059;-71
2023/10/25 01:28:27;;;;;;;5.22;2.10;;;11.40;99.90;;;;;;2098346;28;20078;-71
2023/10/25 01:29:28;;;;;;;3.53;2.05;;;11.40;99.90;;;;;;2098505;28;20089;-72
2023/10/25 01:30:28;;;;;;;5.55;2.10;;;11.40;99.90;;;;;;2096844;28;20028;-72
2023/10/25 01:31:29;;;;;;;3.47;2.00;;;11.40;99.90;;;;;;2097767;28;20036;-71
2023/10/25 01:32:29;;;;;;;9.13;2.83;;;11.40;99.90;;;;;;2097710;28;20383;-72
2023/10/25 01:33:30;;;;;;;5.97;2.05;;;11.40;99.90;;;;;;2097880;28;20027;-72
2023/10/25 01:34:30;;;;;;;3.67;2.08;;;11.40;99.90;;;;;;2098187;28;20059;-71
2023/10/25 01:35:31;;;;;;;5.10;2.15;;;11.40;99.90;;;;;;2098116;28;20099;-72
2023/10/25 01:36:32;;;;;;;5.85;2.17;;;11.40;99.90;;;;;;2096583;28;20028;-71
2023/10/25 01:37:32;;;;;;;4.22;1.80;;;11.40;99.90;;;;;;2098194;28;20374;-71
2023/10/25 01:38:33;;;;;;;2.83;2.00;;;11.40;99.90;;;;;;2097409;28;20020;-72
2023/10/25 01:39:34;;;;;;;3.53;2.03;;;11.30;99.90;;;;;;2100508;28;20020;-72
2023/10/25 01:40:34;;;;;;;3.28;1.67;;;11.40;99.90;;;;;;2099441;28;20133;-72
2023/10/25 01:41:35;;;;;;;4.97;2.00;;;11.30;99.90;;;;;;2096615;28;20035;-72
2023/10/25 01:42:35;;;;;;;6.18;2.38;;;11.40;99.90;;;;;;2097938;28;20109;-72
2023/10/25 01:43:36;;;;;;;4.50;2.10;;;11.30;99.90;;;;;;2098634;28;20039;-72
2023/10/25 01:44:36;;;;;;;6.03;2.35;;;11.30;99.90;;;;;;2099402;28;20078;-72
2023/10/25 01:45:37;;;;;;;3.35;1.77;;;11.30;99.90;;;;;;2097814;28;20039;-72
2023/10/25 01:46:37;;;;;;;3.90;1.92;;;11.30;99.90;;;;;;2100029;28;20048;-72
2023/10/25 01:47:39;;;;;;;4.82;1.95;;;11.30;99.90;;;;;;2102083;28;20021;-71
2023/10/25 01:48:39;;;;;;;5.97;2.10;;;11.30;99.90;;;;;;2099295;28;20032;-72
2023/10/25 01:49:40;;;;;;;5.82;2.30;;;11.30;99.90;;;;;;2099449;28;20037;-71
2023/10/25 01:50:40;;;;;;;5.10;2.22;;;11.30;99.90;;;;;;2102747;28;20032;-72
2023/10/25 01:51:41;;;;;;;6.00;2.00;;;11.30;99.90;;;;;;2094867;28;20024;-72
2023/10/25 01:52:41;;;;;;;6.10;2.08;;;11.30;99.90;;;;;;2102900;28;20047;-71
2023/10/25 01:53:42;;;;;;;7.97;2.33;;;11.30;99.90;;;;;;2098811;28;20032;-72
2023/10/25 01:54:45;;;;;;;5.15;2.13;;;11.30;99.90;;;;;;2098643;28;20033;-72
2023/10/25 01:55:46;;;;;;;3.50;1.67;;;11.30;99.90;;;;;;2100736;28;20033;-72
2023/10/25 01:56:46;;;;;;;5.43;2.05;;;11.30;99.90;;;;;;2098653;28;20464;-72
2023/10/25 01:57:47;;;;;;;6.07;1.90;;;11.30;99.90;;;;;;2099439;28;20492;-71
2023/10/25 01:58:47;;;;;;;6.57;2.13;;;11.30;99.90;;;;;;2103734;28;20097;-72
2023/10/25 01:59:48;;;;;;;4.65;2.17;;;11.30;99.90;;;;;;2102195;28;20028;-72
2023/10/25 02:00:48;;;;;;;4.35;2.50;;;11.30;99.90;;;;;;2098852;28;20032;-72
2023/10/25 02:01:49;;;;;;;3.20;1.90;;;11.30;99.90;;;;;;2107247;28;20467;-72
2023/10/25 02:02:49;;;;;;;4.05;2.20;;;11.30;99.90;;;;;;2106763;28;20461;-72
2023/10/25 02:03:50;;;;;;;5.28;2.70;;;11.30;99.90;;;;;;2099431;28;20036;-71
2023/10/25 02:04:50;;;;;;;5.25;2.10;;;11.30;99.90;;;;;;2097562;28;20059;-72
2023/10/25 02:05:51;;;;;;;3.70;2.00;;;11.30;99.90;;;;;;2098711;28;20032;-71
2023/10/25 02:06:52;;;;;;;3.65;2.00;;;11.30;99.90;;;;;;2098272;28;20389;-71
2023/10/25 02:07:52;;;;;;;4.25;2.13;;;11.30;99.90;;;;;;2098725;28;20027;-72
2023/10/25 02:08:53;;;;;;;5.55;2.25;;;11.30;99.90;;;;;;2100050;28;20515;-72
2023/10/25 02:09:53;;;;;;;5.78;2.20;;;11.30;99.90;;;;;;2099974;28;20052;-71
2023/10/25 02:10:54;;;;;;;5.47;2.28;;;11.30;99.90;;;;;;2099402;28;20032;-71
2023/10/25 02:11:55;;;;;;;4.72;2.13;;;11.30;99.90;;;;;;2098718;28;20020;-72
2023/10/25 02:12:55;;;;;;;3.88;1.85;;;11.30;99.90;;;;;;2097358;28;20103;-72
2023/10/25 02:13:57;;;;;;;5.05;2.05;;;11.30;99.90;;;;;;2098078;28;20024;-72
2023/10/25 02:14:58;;;;;;;3.55;2.05;;;11.30;99.90;;;;;;2098955;28;20028;-71
2023/10/25 02:15:58;;;;;;;2.78;1.70;;;11.30;99.90;;;;;;2098926;28;20476;-71
2023/10/25 02:16:59;;;;;;;5.68;1.85;;;11.30;99.90;;;;;;2093732;28;20447;-71
2023/10/25 02:17:59;;;;;;;4.88;2.05;;;11.30;99.90;;;;;;2103343;28;20032;-72
2023/10/25 02:19:00;;;;;;;3.35;1.77;;;11.30;99.90;;;;;;2099586;28;20032;-72
2023/10/25 02:20:01;;;;;;;6.65;1.90;;;11.30;99.90;;;;;;2098812;28;20101;-71
2023/10/25 02:21:03;;;;;;;4.38;2.00;;;11.30;99.90;;;;;;2096516;28;20516;-71
2023/10/25 02:22:04;;;;;;;6.13;2.10;;;11.30;99.90;;;;;;2099059;28;20043;-72
2023/10/25 02:23:04;;;;;;;3.33;1.95;;;11.30;99.90;;;;;;2100243;28;20031;-72
2023/10/25 02:24:05;;;;;;;3.88;1.80;;;11.30;99.90;;;;;;2099712;28;20103;-72
2023/10/25 02:25:06;;;;;;;5.00;1.80;;;11.30;99.90;;;;;;2099916;28;20031;-71
2023/10/25 02:26:07;;;;;;;3.60;1.60;;;11.30;99.90;;;;;;2099042;28;20123;-72
2023/10/25 02:27:07;;;;;;;6.45;2.22;;;11.30;99.90;;;;;;2097347;28;20414;-72
2023/10/25 02:28:09;;;;;;;5.40;2.33;;;11.30;99.90;;;;;;2097913;28;20017;-72
2023/10/25 02:29:09;;;;;;;4.15;2.38;;;11.30;99.90;;;;;;2098192;28;20082;-72
2023/10/25 02:30:10;;;;;;;4.93;1.90;;;11.30;99.90;;;;;;2097563;28;20954;-71
2023/10/25 02:31:11;;;;;;;4.32;1.85;;;11.30;99.90;;;;;;2099273;28;20612;-72
2023/10/25 02:32:12;;;;;;;4.85;1.80;;;11.30;99.90;;;;;;2099830;28;20028;-72
2023/10/25 02:33:13;;;;;;;5.38;1.88;;;11.30;99.90;;;;;;2098416;28;20073;-72
2023/10/25 02:34:13;;;;;;;4.35;1.70;;;11.30;99.90;;;;;;2098384;28;20043;-72
2023/10/25 02:35:15;;;;;;;5.13;1.83;;;11.30;99.90;;;;;;2097052;28;20036;-72
2023/10/25 02:36:16;;;;;;;4.45;1.77;;;11.30;99.90;;;;;;2098459;28;20016;-72
2023/10/25 02:37:17;;;;;;;4.43;1.83;;;11.30;99.90;;;;;;2099942;28;20032;-71
2023/10/25 02:38:17;;;;;;;4.07;2.08;;;11.30;99.90;;;;;;2091218;28;20464;-72
2023/10/25 02:39:18;;;;;;;4.03;1.90;;;11.20;99.90;;;;;;2095033;28;20873;-72
2023/10/25 02:40:19;;;;;;;4.68;2.22;;;11.20;99.90;;;;;;2101318;28;23998;-72
2023/10/25 02:41:20;;;;;;;9.52;2.35;;;11.20;99.90;;;;;;2099527;28;20395;-72
2023/10/25 02:42:20;;;;;;;5.20;2.17;;;11.20;99.90;;;;;;2101251;28;20032;-72
2023/10/25 02:43:21;;;;;;;5.15;2.40;;;11.20;99.90;;;;;;2100853;28;20099;-72
2023/10/25 02:44:21;;;;;;;6.05;2.35;;;11.20;99.90;;;;;;2098829;28;20439;-72
2023/10/25 02:45:22;;;;;;;7.05;2.35;;;11.20;99.90;;;;;;2097478;28;20028;-71
2023/10/25 02:46:23;;;;;;;5.30;2.30;;;11.20;99.90;;;;;;2096543;28;20593;-73
2023/10/25 02:47:23;;;;;;;5.18;2.42;;;11.20;99.90;;;;;;2099322;28;20102;-71
2023/10/25 02:48:24;;;;;;;6.93;2.22;;;11.20;99.90;;;;;;2097553;28;20060;-72
2023/10/25 02:49:24;;;;;;;5.85;2.30;;;11.20;99.90;;;;;;2098232;28;20763;-71
2023/10/25 02:50:25;;;;;;;7.60;2.10;;;11.20;99.90;;;;;;2098785;28;20025;-72
2023/10/25 02:51:26;;;;;;;3.80;2.15;;;11.20;99.90;;;;;;2098215;28;20016;-71
2023/10/25 02:52:27;;;;;;;6.78;2.42;;;11.20;99.90;;;;;;2100911;28;20040;-72
2023/10/25 02:53:27;;;;;;;5.85;2.33;;;11.20;99.90;;;;;;2093651;28;20119;-72
2023/10/25 02:54:28;;;;;;;6.95;2.38;;;11.20;99.90;;;;;;2098430;28;20041;-72
2023/10/25 02:55:28;;;;;;;5.70;2.75;;;11.20;99.90;;;;;;2097073;28;20531;-72
2023/10/25 02:56:29;;;;;;;9.63;2.72;;;11.20;99.90;;;;;;2100339;28;20032;-71
2023/10/25 02:57:29;;;;;;;4.45;2.67;;;11.10;99.90;;;;;;2099963;28;20544;-71
2023/10/25 02:58:30;;;;;;;6.07;2.75;;;11.10;99.90;;;;;;2097721;28;20028;-72
2023/10/25 02:59:31;;;;;;;4.82;2.78;;;11.10;99.90;;;;;;2098884;28;20032;-72
2023/10/25 03:00:31;;;;;;;6.45;2.85;;;11.10;99.90;;;;;;2098317;28;20123;-72
2023/10/25 03:01:32;;;;;;;6.30;2.67;;;11.10;99.90;;;;;;2098044;28;20024;-72
2023/10/25 03:02:32;;;;;;;4.70;2.38;;;11.10;99.90;;;;;;2098874;28;20040;-71
2023/10/25 03:03:34;;;;;;;4.82;2.33;;;11.00;99.90;;;;;;2098155;28;20077;-71
2023/10/25 03:04:34;;;;;;;4.80;2.63;;;11.00;99.90;;;;;;2098318;28;20400;-72
2023/10/25 03:05:35;;;;;;;7.78;2.47;;;11.00;99.90;;;;;;2099161;28;20071;-71
2023/10/25 03:06:35;;;;;;;5.35;2.55;;;11.00;99.90;;;;;;2102948;28;20062;-71
2023/10/25 03:07:36;;;;;;;5.35;2.47;;;11.00;99.90;;;;;;2101373;28;20020;-71
2023/10/25 03:08:36;;;;;;;8.30;2.45;;;11.00;99.90;;;;;;2107731;28;20036;-72
2023/10/25 03:09:37;;;;;;;8.18;2.50;;;10.90;99.90;;;;;;2098474;28;20032;-72
2023/10/25 03:10:38;;;;;;;4.60;2.30;;;10.90;99.90;;;;;;2097522;28;20046;-71
2023/10/25 03:11:38;;;;;;;3.55;2.08;;;11.00;99.90;;;;;;2097141;28;20085;-72
2023/10/25 03:12:39;;;;;;;4.22;2.10;;;10.90;99.90;;;;;;2096496;28;20069;-71
2023/10/25 03:13:39;;;;;;;4.65;2.42;;;10.90;99.90;;;;;;2096665;28;20032;-72
2023/10/25 03:14:40;;;;;;;5.03;2.35;;;10.90;99.90;;;;;;2097917;28;20039;-72
2023/10/25 03:15:40;;;;;;;6.45;2.60;;;10.90;99.90;;;;;;2098398;28;20063;-71
2023/10/25 03:16:41;;;;;;;3.40;2.38;;;10.90;99.90;;;;;;2100141;28;20060;-71
2023/10/25 03:17:41;;;;;;;5.15;2.08;;;10.90;99.90;;;;;;2099082;28;20029;-72
2023/10/25 03:18:42;;;;;;;5.10;2.33;;;10.90;99.90;;;;;;2098203;28;20033;-71
2023/10/25 03:19:42;;;;;;;9.15;2.70;;;10.80;99.90;;;;;;2099638;28;20464;-71
2023/10/25 03:20:43;;;;;;;6.20;2.90;;;10.90;99.90;;;;;;2099146;28;20541;-71
2023/10/25 03:21:43;;;;;;;4.30;2.13;;;10.90;99.90;;;;;;2099132;28;20096;-72
2023/10/25 03:22:44;;;;;;;6.28;2.53;;;10.80;99.90;;;;;;2100153;28;20808;-72
2023/10/25 03:23:45;;;;;;;5.13;2.60;;;10.80;99.90;;;;;;2100974;28;20028;-72
2023/10/25 03:24:45;;;;;;;5.03;2.38;;;10.80;99.90;;;;;;2098378;28;20067;-72
2023/10/25 03:25:46;;;;;;;4.53;2.13;;;10.80;99.90;;;;;;2097124;28;20036;-72
2023/10/25 03:26:46;;;;;;;4.78;2.40;;;10.80;99.90;;;;;;2096437;28;20044;-72
2023/10/25 03:27:47;;;;;;;8.13;2.45;;;10.80;99.90;;;;;;2099001;28;20027;-71
2023/10/25 03:28:50;;;;;;;5.15;2.28;;;10.80;99.90;;;;;;2098644;28;20024;-71
2023/10/25 03:29:51;;;;;;;4.22;2.38;;;10.80;99.90;;;;;;2098354;28;20349;-72
2023/10/25 03:30:51;;;;;;;5.97;2.63;;;10.80;99.90;;;;;;2096584;28;20043;-72
2023/10/25 03:31:53;;;;;;;4.72;2.15;;;10.80;99.90;;;;;;2098723;28;20107;-71
2023/10/25 03:32:54;;;;;;;4.70;2.22;;;10.80;99.90;;;;;;2097737;28;20109;-72
2023/10/25 03:33:54;;;;;;;4.97;2.35;;;10.80;99.90;;;;;;2098481;28;20093;-72
2023/10/25 03:34:55;;;;;;;7.25;3.40;;;10.70;99.90;;;;;;2102466;28;20020;-71
2023/10/25 03:35:56;;;;;;;7.43;2.53;;;10.80;99.90;;;;;;2102302;28;20399;-71
2023/10/25 03:36:56;;;;;;;5.00;2.58;;;10.80;99.90;;;;;;2097194;28;20106;-72
2023/10/25 03:37:57;;;;;;;5.20;2.42;;;10.80;99.90;;;;;;2097055;28;20048;-72
2023/10/25 03:39:00;;;;;;;5.40;2.10;;;10.70;99.90;;;;;;2099772;28;20059;-71
2023/10/25 03:40:00;;;;;;;4.85;2.47;;;10.80;99.90;;;;;;2097051;28;20162;-71
2023/10/25 03:41:02;;;;;;;6.63;2.20;;;10.70;99.90;;;;;;2097022;28;20090;-71
2023/10/25 03:42:03;;;;;;;6.68;2.90;;;10.70;99.90;;;;;;2097552;28;20028;-72
2023/10/25 03:43:04;;;;;;;5.30;2.50;;;10.80;99.90;;;;;;2099511;28;20032;-72
2023/10/25 03:44:04;;;;;;;5.63;2.40;;;10.80;99.90;;;;;;2100575;28;20062;-71
2023/10/25 03:45:06;;;;;;;4.45;2.70;;;10.70;99.90;;;;;;2097988;28;20437;-72
2023/10/25 03:46:08;;;;;;;6.72;2.72;;;10.70;99.90;;;;;;2098391;28;20028;-72
2023/10/25 03:47:08;;;;;;;8.90;2.72;;;10.70;99.90;;;;;;2098717;28;20020;-71
2023/10/25 03:48:09;;;;;;;4.43;2.45;;;10.70;99.90;;;;;;2097213;28;20051;-71
2023/10/25 03:49:09;;;;;;;6.25;2.72;;;10.70;99.90;;;;;;2102724;28;20035;-72
2023/10/25 03:50:10;;;;;;;4.93;2.58;;;10.70;99.90;;;;;;2102861;28;20075;-71
2023/10/25 03:51:11;;;;;;;7.38;2.53;;;10.70;99.90;;;;;;2100653;28;20108;-71
2023/10/25 03:52:11;;;;;;;7.60;2.42;;;10.70;99.90;;;;;;2099578;28;20016;-72
2023/10/25 03:53:12;;;;;;;8.00;2.63;;;10.70;99.90;;;;;;2097118;28;20077;-71
2023/10/25 03:54:12;;;;;;;4.88;2.58;;;10.70;99.90;;;;;;2096850;28;20024;-71
2023/10/25 03:55:13;;;;;;;6.45;2.47;;;10.70;99.90;;;;;;2099672;28;20035;-72
2023/10/25 03:56:13;;;;;;;8.25;3.05;;;10.70;99.90;;;;;;2098919;28;20043;-72
2023/10/25 03:57:14;;;;;;;3.95;2.30;;;10.70;99.90;;;;;;2097988;28;20526;-72
2023/10/25 03:58:14;;;;;;;4.93;2.10;;;10.70;99.90;;;;;;2098150;28;20027;-73
2023/10/25 03:59:15;;;;;;;3.53;2.60;;;10.70;99.90;;;;;;2099046;28;20034;-73
2023/10/25 04:00:16;;;;;;;4.25;2.28;;;10.70;99.90;;;;;;2097537;28;20029;-73
2023/10/25 04:01:16;;;;;;;5.68;2.50;;;10.70;99.90;;;;;;2096403;28;20159;-72
2023/10/25 04:02:17;;;;;;;4.10;1.92;;;10.70;99.90;;;;;;2097514;28;20480;-73
2023/10/25 04:03:17;;;;;;;5.38;2.45;;;10.70;99.90;;;;;;2097177;28;20031;-73
2023/10/25 04:04:18;;;;;;;8.00;3.13;;;10.70;99.90;;;;;;2101698;28;20024;-73
2023/10/25 04:05:18;;;;;;;5.43;2.38;;;10.70;99.90;;;;;;2093871;28;20024;-73
2023/10/25 04:06:19;;;;;;;5.57;2.53;;;10.70;99.90;;;;;;2099013;28;20831;-71
2023/10/25 04:07:19;;;;;;;7.47;2.78;;;10.70;99.90;;;;;;2097447;28;20025;-72
2023/10/25 04:08:21;;;;;;;3.00;2.30;;;10.70;99.90;;;;;;2098405;28;20732;-71
2023/10/25 04:09:21;;;;;;;4.20;2.53;;;10.70;99.90;;;;;;2097188;28;20451;-72
2023/10/25 04:10:22;;;;;;;9.73;2.60;;;10.70;99.90;;;;;;2097213;28;20439;-72
2023/10/25 04:11:22;;;;;;;3.60;2.25;;;10.70;99.90;;;;;;2101965;28;21015;-72
2023/10/25 04:12:23;;;;;;;4.03;2.20;;;10.70;99.90;;;;;;2101616;28;20036;-71
2023/10/25 04:13:25;;;;;;;4.68;2.50;;;10.70;99.90;;;;;;2097433;28;20020;-72
2023/10/25 04:14:25;;;;;;;7.70;2.65;;;10.70;99.90;;;;;;2099757;28;20039;-72
2023/10/25 04:15:26;;;;;;;3.33;2.22;;;10.70;99.90;;;;;;2098032;28;20517;-71
2023/10/25 04:16:27;;;;;;;4.43;2.50;;;10.70;99.90;;;;;;2097223;28;20079;-71
2023/10/25 04:17:28;;;;;;;5.90;3.10;;;10.70;99.90;;;;;;2090166;28;20108;-72
2023/10/25 04:18:29;;;;;;;3.67;2.30;;;10.70;99.90;;;;;;2101225;28;20020;-72
2023/10/25 04:19:30;;;;;;;6.03;2.65;;;10.70;99.90;;;;;;2097379;28;20069;-71
2023/10/25 04:20:32;;;;;;;4.97;2.88;;;10.70;99.90;;;;;;2096219;28;20843;-71
2023/10/25 04:21:32;;;;;;;8.85;2.60;;;10.70;99.90;;;;;;2101209;28;20450;-72
2023/10/25 04:22:34;;;;;;;5.47;2.55;;;10.70;99.90;;;;;;2097567;28;20025;-72
2023/10/25 04:23:35;;;;;;;4.20;2.65;;;10.70;99.90;;;;;;2097121;28;20393;-71
2023/10/25 04:24:35;;;;;;;3.72;2.88;;;10.70;99.90;;;;;;2096840;28;20043;-72
2023/10/25 04:25:36;;;;;;;6.78;2.80;;;10.70;99.90;;;;;;2099132;28;20085;-71
2023/10/25 04:26:36;;;;;;;5.43;2.22;;;10.70;99.90;;;;;;2097060;28;20562;-72
2023/10/25 04:27:37;;;;;;;4.55;2.63;;;10.70;99.90;;;;;;2097118;28;20028;-71
2023/10/25 04:28:39;;;;;;;4.13;2.20;;;10.60;99.90;;;;;;2097250;28;20036;-72
2023/10/25 04:29:40;;;;;;;7.22;2.65;;;10.70;99.90;;;;;;2099007;28;20044;-72
2023/10/25 04:30:40;;;;;;;5.57;2.58;;;10.70;99.90;;;;;;2096319;28;20468;-70
2023/10/25 04:31:41;;;;;;;5.68;2.47;;;10.70;99.90;;;;;;2098581;28;20031;-71
2023/10/25 04:32:41;;;;;;;7.45;2.50;;;10.70;99.90;;;;;;2097478;28;20046;-70
2023/10/25 04:33:42;;;;;;;5.22;2.50;;;10.70;99.90;;;;;;2098427;28;20033;-72
2023/10/25 04:34:42;;;;;;;6.90;2.83;;;10.70;99.90;;;;;;2097565;28;20104;-73
2023/10/25 04:35:44;;;;;;;8.05;2.63;;;10.70;99.90;;;;;;2099362;28;20031;-71
2023/10/25 04:36:44;;;;;;;3.25;2.33;;;10.70;99.90;;;;;;2098721;28;20059;-71
2023/10/25 04:37:45;;;;;;;6.63;2.40;;;10.70;99.90;;;;;;2095955;28;20021;-72
2023/10/25 04:38:46;;;;;;;4.82;2.20;;;10.70;99.90;;;;;;2097916;28;20128;-72
2023/10/25 04:39:46;;;;;;;5.93;2.97;;;10.70;99.90;;;;;;2104732;28;20463;-71
2023/10/25 04:40:47;;;;;;;5.78;2.60;;;10.70;99.90;;;;;;2097669;28;20029;-72
2023/10/25 04:41:47;;;;;;;7.15;2.83;;;10.70;99.90;;;;;;2098134;28;20059;-71
2023/10/25 04:42:52;;;;;;;4.57;2.28;;;10.70;99.90;;;;;;2099008;28;20099;-72
2023/10/25 04:43:52;;;;;;;6.35;2.65;;;10.70;99.90;;;;;;2097599;28;20042;-71
2023/10/25 04:44:53;;;;;;;5.38;2.75;;;10.70;99.90;;;;;;2098266;28;20031;-70
2023/10/25 04:45:53;;;;;;;5.40;2.63;;;10.70;99.90;;;;;;2097636;28;20115;-72
2023/10/25 04:46:54;;;;;;;4.03;2.40;;;10.70;99.90;;;;;;2092079;28;20061;-71
2023/10/25 04:47:55;;;;;;;5.50;2.55;;;10.70;99.90;;;;;;2101781;28;20086;-71
2023/10/25 04:48:55;;;;;;;5.10;2.42;;;10.70;99.90;;;;;;2097245;28;20020;-72
2023/10/25 04:49:57;;;;;;;4.53;2.50;;;10.70;99.90;;;;;;2098541;28;20024;-72
2023/10/25 04:50:58;;;;;;;6.20;2.50;;;10.70;99.90;;;;;;2101775;28;20027;-71
2023/10/25 04:51:58;;;;;;;5.10;2.42;;;10.70;99.90;;;;;;2094866;28;20035;-71
2023/10/25 04:52:59;;;;;;;4.30;2.50;;;10.70;99.90;;;;;;2101560;28;20485;-71
2023/10/25 04:54:00;;;;;;;4.43;2.78;;;10.70;99.90;;;;;;2097484;28;20029;-72
2023/10/25 04:55:00;;;;;;;4.53;2.50;;;10.70;99.90;;;;;;2096857;28;20491;-71
2023/10/25 04:56:01;;;;;;;5.10;3.03;;;10.70;99.90;;;;;;2098188;28;20063;-71
2023/10/25 04:57:01;;;;;;;5.35;2.90;;;10.80;99.90;;;;;;2096914;28;20023;-72
2023/10/25 04:58:03;;;;;;;6.00;2.53;;;10.70;99.90;;;;;;2096894;28;20094;-72
2023/10/25 04:59:04;;;;;;;5.38;2.85;;;10.70;99.90;;;;;;2097442;28;20536;-71
2023/10/25 05:00:09;;;;;;;5.55;2.40;;;10.70;99.90;;;;;;2097774;28;20143;-71
2023/10/25 05:01:13;;;;;;;5.15;2.40;;;10.80;99.90;;;;;;2096870;28;20027;-71
2023/10/25 05:02:14;;;;;;;4.57;2.83;;;10.70;99.90;;;;;;2096108;28;20030;-71
2023/10/25 05:03:15;;;;;;;8.57;2.97;;;10.70;99.90;;;;;;2096549;28;20046;-71
2023/10/25 05:04:15;;;;;;;4.28;2.88;;;10.80;99.90;;;;;;2098153;28;20036;-72
2023/10/25 05:05:16;;;;;;;7.05;3.03;;;10.80;99.90;;;;;;2099885;28;20097;-72
2023/10/25 05:06:17;;;;;;;3.75;2.85;;;10.80;99.90;;;;;;2100897;28;20093;-72
2023/10/25 05:07:18;;;;;;;5.45;3.00;;;10.80;99.90;;;;;;2100667;28;20032;-72
2023/10/25 05:08:18;;;;;;;6.38;3.00;;;10.80;99.90;;;;;;2098956;28;20147;-71
2023/10/25 05:09:19;;;;;;;4.20;2.85;;;10.80;99.90;;;;;;2098971;28;20036;-73
2023/10/25 05:10:20;;;;;;;8.90;3.15;;;10.80;99.90;;;;;;2095471;28;20173;-71
2023/10/25 05:11:28;;;;;;;6.80;2.97;;;10.80;99.90;;;;;;2097362;28;20504;-71
2023/10/25 05:12:41;;;;;;;5.43;3.42;;;10.90;99.90;;;;;;2096707;28;20119;-71
2023/10/25 05:13:42;;;;;;;5.68;3.63;;;10.90;99.90;;;;;;2096325;28;20025;-71
2023/10/25 05:14:42;;;;;;;4.53;2.80;;;10.90;99.90;;;;;;2099243;28;20111;-72
2023/10/25 05:15:43;;;;;;;3.90;2.67;;;10.90;99.90;;;;;;2097548;28;20020;-72
2023/10/25 05:16:44;;;;;;;7.32;2.97;;;10.90;99.90;;;;;;2097535;28;20036;-72